Tiempo atmosférico en la estación meteorológica de Yecla, Murcia (640 m.)



Fecha
DESCASC
Temp. máxima en grados centígrados (hora)
DESCASC
Temp. mínima en grados centígrados (hora)
DESCASC
Temp. media en grados centígrados
DESCASC
Racha de viento máxima en m/sg (hora)
DESCASC
Velocidad máxima media en intervalos de 10 minutos(hora)
DESCASC
Precipitaciones diarias en mm
DESCASC
Precipitaciones de 00:00 a 06:00 en mm
DESCASC
Precipitaciones de 06:00 a 12:00 en mm
DESCASC
Precipitaciones de 12:00 a 18:00 en mm
DESCASC
Precipitaciones de 18:00 a 24:00 en mm
DESCASC
22-11-2020 17.1 (15:30) 0.4 (06:00) 8.8 4.72 (19:20) 4.17 (19:20) 0 0 0 0 0
21-11-2020 16.4 (14:10) 3.2 (23:50) 9.8 5 (19:10) 2.5 (18:50) 0 0 0 0 0
20-11-2020 17.9 (15:00) 5 (06:50) 11.4 7.5 (11:40) 4.17 (10:50) 0 0 0 0 0
19-11-2020 19.3 (15:50) 5.1 (00:00) 12.2 7.5 (14:00) 4.72 (13:40) 0 0 0 0 0
18-11-2020 22.2 (15:10) 5 (00:00) 13.6 4.17 (16:10) 2.78 (01:10) 0 0 0 0 0
17-11-2020 22.1 (14:20) 6 (00:00) 14.1 7.5 (15:50) 3.33 (15:20) 0 0 0 0 0
16-11-2020 21.2 (15:00) 10.2 (00:00) 15.7 10.83 (14:10) 4.17 (08:00) 0 0 0 0 0
15-11-2020 22.2 (15:40) 10.2 (00:00) 16.2 11.67 (10:40) 6.11 (10:40) 0 0 0 0 0
14-11-2020 17.2 (14:40) 10.4 (00:00) 13.8 3.89 (14:00) 3.06 (21:20) 0 0 0 0 0
13-11-2020 20.1 (16:00) 8.9 (00:00) 14.5 5.28 (10:20) 3.33 (10:10) 0 0 0 0 0
12-11-2020 19.8 (15:20) 2.8 (00:00) 11.3 6.39 (16:50) 4.17 (16:50) 0 0 0 0 0
11-11-2020 19 (14:10) 6.3 (00:00) 12.7 5.56 (14:50) 3.89 (20:50) 0 0 0 0 0
10-11-2020 20.8 (15:40) 7.9 (00:00) 14.3 9.17 (04:10) 5 (04:10) 0 0 0 0 0
09-11-2020 21.1 (15:00) 5.9 (00:00) 13.5 11.67 (21:20) 6.67 (21:20) 0 0 0 0 0
08-11-2020 19.9 (15:40) 4.1 (00:00) 12 5.56 (12:50) 4.17 (20:10) 0 0 0 0 0
07-11-2020 20.1 (13:40) 8.5 (00:00) 14.3 13.61 (05:20) 8.33 (05:20) 5 4 1 0 0
06-11-2020 19.9 (13:20) 12.7 (00:00) 16.3 11.39 (12:00) 7.78 (12:00) 0 0 0 0 0
05-11-2020 17.1 (14:40) 10.2 (00:00) 13.7 13.61 (11:00) 7.78 (03:40) 1.2 0 1 0 0.2
04-11-2020 14.8 (10:30) 9.9 (00:00) 12.3 11.67 (17:20) 7.78 (16:10) 0 0 0 0 0
03-11-2020 21.8 (14:30) 5.6 (00:00) 13.7 8.61 (17:30) 5.83 (17:30) 0 0 0 0 0
02-11-2020 27.1 (14:10) 6 (00:00) 16.6 6.39 (13:30) 3.61 (13:50) 0 0 0 0 0
01-11-2020 27.8 (15:10) 8.7 (00:00) 18.2 10.83 (11:10) 3.61 (15:00) 0 0 0 0 0
31-10-2020 26.9 (16:10) 4.5 (00:00) 15.7 7.5 (17:40) 3.89 (13:40) 0 0 0 0 0
30-10-2020 25.3 (14:20) 4.8 (00:00) 15 6.67 (12:30) 3.61 (20:30) 0 0 0 0 0
29-10-2020 24.1 (15:20) 7.6 (00:00) 15.9 11.39 (03:50) 6.11 (04:30) 0 0 0 0 0
28-10-2020 22.6 (15:30) 9.7 (00:00) 16.2 15.28 (02:40) 8.33 (23:30) 0 0 0 0 0

Gráficas

Temp. máximas Temp. mínimas Temp. medias Precipitaciones Rachas de viento máximas Velocidades máximas media en intervalos de 10 minutos

Datos horarios

Fecha y hora oficial Temperatura (ºC) Velocidad del viento (km/h) Dirección del viento Racha (km/h) Dirección de racha Precipitación (mm) Presión (hPa) Tendencia (hPa) Humedad (%)
2020-11-26 23:00:00 11.1 8 Nordeste 14 Nordeste 0 938.3 -0.3 74
2020-11-26 22:00:00 10.7 8 Nordeste 14 Nordeste 0 938.5 0.4 76
2020-11-26 21:00:00 11.1 6 Este 19 Nordeste 0 938.7 0.7 73
2020-11-26 20:00:00 11.6 9 Este 24 Este 0 938.6 0.6 70
2020-11-26 19:00:00 12.6 16 Este 28 Este 0 938.1 0.4 65
2020-11-26 18:00:00 13.2 13 Este 28 Sudeste 0 938 0.3 61
2020-11-26 17:00:00 14.6 15 Este 28 Este 0 938 0.2 58
2020-11-26 16:00:00 15.2 14 Este 30 Sudeste 0 937.7 -1 57
2020-11-26 15:00:00 15.9 13 Sudeste 32 Sudeste 0 937.7 -1.7 54
2020-11-26 14:00:00 16.5 16 Sudeste 32 Este 0 937.8 -2 51
2020-11-26 13:00:00 14.8 14 Este 26 Nordeste 0 938.7 -- 63
2020-11-26 12:00:00 13.2 16 Nordeste 28 Este 0 939.4 -- 74
2020-11-26 11:00:00 12 18 Nordeste 30 Nordeste 0 939.8 -- 82
2020-11-26 10:00:00 10.8 18 Este 32 Este 0 939.5 -- 89
2020-11-26 09:00:00 9.9 15 Nordeste 27 Nordeste 0 939.3 -- 92
2020-11-26 08:00:00 9.2 14 Nordeste 23 Nordeste 0 939 -- 92
2020-11-26 07:00:00 9 12 Nordeste 19 Nordeste 0 939 -- 92
2020-11-26 06:00:00 8.7 11 Nordeste 17 Nordeste 0 939.3 -- 91
2020-11-26 05:00:00 8.7 8 Nordeste 15 Nordeste 0 939.7 -- 91
2020-11-26 04:00:00 8.5 5 Nordeste 8 Norte 0 940 -- 91
2020-11-26 03:00:00 8.3 4 Este 9 Nordeste 0 940.1 -- 90
2020-11-26 02:00:00 8 3 Oeste 6 Sudoeste 0 940.7 -- 91
2020-11-26 01:00:00 7.1 4 Sudoeste 6 Sudoeste 0 941 -- 90
2020-11-26 00:00:00 7.1 3 Sudeste 7 Sudoeste 0 941.4 -- 90
2020-11-25 23:00:00 6.8 4 Oeste 11 Oeste 0 941.5 -- 90
2020-11-25 22:00:00 5.1 8 Oeste 10 Oeste 0 941.6 -- 89
2020-11-25 21:00:00 5.8 4 Oeste 8 Nordeste 0 941.4 -- 86
2020-11-25 20:00:00 6.6 3 Norte 9 Oeste 0 941.3 -- 82
2020-11-25 19:00:00 9.3 3 Nordeste 5 Nordeste 0 940.9 -- 73
2020-11-25 18:00:00 11.9 2 Este 14 Sur 0 940.7 -- 64
2020-11-25 17:00:00 14.5 9 Sur 17 Sudeste 0 940.5 -- 56
2020-11-25 16:00:00 15 5 Sudeste 13 Sur 0 940.7 -- 54
2020-11-25 15:00:00 15.8 9 Sudeste 22 Sudeste 0 941.2 -- 53
2020-11-25 14:00:00 15.6 8 Sudeste 14 Sur 0 942 -- 54
2020-11-25 13:00:00 13.8 3 Sur 7 Sudeste 0 942.8 -- 66
2020-11-25 12:00:00 9.1 3 Sudeste 8 Nordeste 0 943.6 -- 94
2020-11-25 11:00:00 6.3 0 Calma 5 Nordeste 0 944.3 -- 94
2020-11-25 10:00:00 5 2 Este 5 Este 0 944.4 -- 94
2020-11-25 09:00:00 3.4 0 Calma 4 Oeste 0 944.6 -- 93
2020-11-25 08:00:00 2.5 4 Oeste 8 Oeste 0 944.4 -- 93
2020-11-25 07:00:00 1.4 8 Sudoeste 11 Oeste 0 943.9 -- 93
2020-11-25 06:00:00 0.3 6 Sudoeste 8 Oeste 0 944 -- 92
2020-11-25 05:00:00 0.6 0 Calma 6 Sudoeste 0 944.3 -- 92
2020-11-25 04:00:00 1.1 5 Sudoeste 7 Oeste 0 944.6 -- 92
2020-11-25 03:00:00 1 2 Sudoeste 6 Oeste 0 945 -- 91
2020-11-25 02:00:00 2.1 0 Calma 9 Oeste 0 945.5 -- 90
2020-11-25 01:00:00 2.1 3 Oeste 12 Oeste 0 946.2 -- 89
2020-11-25 00:00:00 2.6 2 Sudoeste 9 Sudoeste 0 946.4 -- 87
2020-11-24 23:00:00 3.5 5 Oeste 12 Oeste 0 946.6 -- 86
2020-11-24 22:00:00 3.8 4 Oeste 6 Oeste 0 946.7 -- 82
2020-11-24 21:00:00 5.2 2 Norte 10 Oeste 0 946.8 -- 78
2020-11-24 20:00:00 7.7 5 Sudoeste 13 Oeste 0 946.6 -- 72
2020-11-24 19:00:00 8.4 9 Sudoeste 14 Oeste 0 946.7 -- 67
2020-11-24 18:00:00 10.4 9 Sudoeste 14 Oeste 0 946.5 -- 58
2020-11-24 17:00:00 14.1 11 Sudoeste 16 Sudoeste 0 946.4 -- 50
2020-11-24 16:00:00 15.7 8 Sudoeste 17 Sudoeste 0 946.6 -- 42
2020-11-24 15:00:00 16 10 Sur 17 Sur 0 947.1 -- 38
2020-11-24 14:00:00 14.8 11 Sur 23 Sur 0 948 -- 42
2020-11-24 13:00:00 13.6 5 Este 14 Sur 0 948.7 -- 59
2020-11-24 12:00:00 9.3 5 Este 11 Este 0 949.9 -- 89
2020-11-24 11:00:00 4.7 3 Nordeste 7 Este 0 950.5 -- 93
2020-11-24 10:00:00 2.6 0 Calma 6 Oeste 0 950.5 -- 93
2020-11-24 09:00:00 1.2 3 Sudoeste 5 Oeste 0 950.5 -- 93
2020-11-24 08:00:00 0.2 2 Nordeste 8 Oeste 0 950.3 -- 93
2020-11-24 07:00:00 -0.3 2 Oeste 8 Oeste 0 950.2 -- 92
2020-11-24 06:00:00 -0.2 0 Calma 7 Oeste 0 950.4 -- 91
2020-11-24 05:00:00 0.4 2 Noroeste 8 Sudoeste 0 950.6 -- 91
2020-11-24 04:00:00 0.5 0 Calma 8 Oeste 0 950.9 -- 91
2020-11-24 03:00:00 0.1 3 Sudoeste 6 Oeste 0 951.2 -- 89
2020-11-24 02:00:00 1.8 3 Oeste 6 Sudoeste 0 951.7 -- 90
2020-11-24 01:00:00 2 4 Oeste 9 Oeste 0 952.2 -- 87
2020-11-24 00:00:00 2.7 3 Sudoeste 8 Noroeste 0 952.4 -- 81
2020-11-23 23:00:00 4.1 5 Oeste 16 Oeste 0 952.5 -- 81
2020-11-23 22:00:00 3.7 9 Oeste 12 Oeste 0 952.8 -- 81
2020-11-23 21:00:00 5.3 5 Sudoeste 14 Oeste 0 952.6 -- 74
2020-11-23 20:00:00 7.2 9 Oeste 15 Oeste 0 952.4 -- 68
2020-11-23 19:00:00 9.1 10 Oeste 13 Oeste 0 952.1 -- 65
2020-11-23 18:00:00 11.2 7 Oeste 10 Sudoeste 0 951.8 -- 55
2020-11-23 17:00:00 15.1 8 Sudoeste 14 Sudoeste 0 951.6 -- 44
2020-11-23 16:00:00 16.1 6 Sur 17 Sudoeste 0 951.5 -- 42
2020-11-23 15:00:00 16.1 9 Sur 19 Sudoeste 0 951.7 -- 43
2020-11-23 14:00:00 16 9 Sudoeste 20 Sur 0 952.4 -- 43
2020-11-23 13:00:00 15.3 13 Sur 19 Sur 0 953.1 -- 43
2020-11-23 12:00:00 14.3 6 Sur 11 Sudeste 0 953.9 -- 49
2020-11-23 11:00:00 10.8 2 Oeste 6 Este 0 954.1 -- 59
2020-11-23 10:00:00 5.6 4 Este 7 Este 0 954.1 -- 78
2020-11-23 09:00:00 2.4 0 Calma 6 Oeste 0 953.7 -- 91
2020-11-23 08:00:00 -0.7 3 Oeste 7 Sudoeste 0 953.6 -- 91
2020-11-23 07:00:00 -1 4 Oeste 6 Oeste 0 953.1 -- 91
2020-11-23 06:00:00 -1.2 2 Oeste 6 Norte 0 953 -- 89
2020-11-23 05:00:00 -0.8 3 Sudoeste 6 Sudoeste 0 952.9 -- 89
2020-11-23 04:00:00 -0.4 3 Oeste 7 Oeste 0 952.9 -- 88
2020-11-23 03:00:00 -0.6 2 Oeste 7 Oeste 0 953.1 -- 86
2020-11-23 02:00:00 0.5 0 Calma 8 Oeste 0 953.2 -- 83
2020-11-23 01:00:00 0.9 4 Oeste 11 Oeste 0 953.2 -- 81
2020-11-23 00:00:00 1.7 4 Oeste 11 Oeste 0 953.3 -- 77
2020-11-22 23:00:00 2 4 Oeste 10 Oeste 0 953.3 -- 74
2020-11-22 22:00:00 3.6 5 Sudoeste 13 Oeste 0 953.1 -- 67
2020-11-22 21:00:00 4.9 4 Oeste 15 Oeste 0 953 -- 64
2020-11-22 20:00:00 7.1 3 Oeste 17 Oeste 0 952.8 -- 55
2020-11-22 19:00:00 9.1 11 Oeste 15 Oeste 0 952.2 -- 53
2020-11-22 18:00:00 11.2 12 Oeste 14 Oeste 0 951.7 -- 42
2020-11-22 17:00:00 16 6 Sur 12 Sur 0 951.4 -- 29
2020-11-22 16:00:00 16.7 8 Sur 16 Sudeste 0 951.4 -- 22
2020-11-22 15:00:00 16.8 7 Sur 14 Sudoeste 0 951.6 -- 31
2020-11-22 14:00:00 16.3 3 Sur 12 Sudeste 0 952.3 -- 39
2020-11-22 13:00:00 15.1 4 Sudeste 13 Sudeste 0 953.1 -- 43
2020-11-22 12:00:00 13.6 5 Sudeste 16 Este 0 953.9 -- 52
2020-11-22 11:00:00 10.7 8 Norte 14 Norte 0 954.3 -- 64
2020-11-22 10:00:00 8 5 Sudeste 9 Sudeste 0 954.5 -- 91
2020-11-22 09:00:00 4 2 Este 5 Sudoeste 0 954.2 -- 92
2020-11-22 08:00:00 3.5 4 Sudoeste 5 Oeste 0 954 -- 92
2020-11-22 07:00:00 1.8 0 Calma 7 Sudoeste 0 953.7 -- 92
2020-11-22 06:00:00 0.4 5 Sudoeste 8 Oeste 0 953.2 -- 91
2020-11-22 05:00:00 0.8 3 Oeste 5 Oeste 0 953.3 -- 90
2020-11-22 04:00:00 2.1 2 Sudoeste 3 Sudoeste 0 953.2 -- 89
2020-11-22 03:00:00 4.3 2 Nordeste 5 Nordeste 0 953.8 -- 91
2020-11-22 02:00:00 4.4 2 Nordeste 6 Sudoeste 0 954.1 -- 90
2020-11-22 01:00:00 4.3 2 Noroeste 11 Oeste 0 954.6 -- 91
2020-11-22 00:00:00 3.3 8 Sudoeste 12 Oeste 0 954.8 -- 89
2020-11-21 23:00:00 3.9 8 Sudoeste 12 Oeste 0 954.8 -- 87
2020-11-21 22:00:00 5.3 6 Sudoeste 13 Oeste 0 954.8 -- 84
2020-11-21 21:00:00 6.5 8 Sudoeste 12 Oeste 0 954.6 -- 82
2020-11-21 20:00:00 9.1 9 Nordeste 18 Este 0 954.3 -- 78
2020-11-21 19:00:00 10.1 9 Nordeste 16 Nordeste 0 953.9 -- 72
2020-11-21 18:00:00 11.1 2 Oeste 9 Sudeste 0 953 -- 48
2020-11-21 17:00:00 15.6 4 Sur 13 Sudeste 0 952.7 -- 33
2020-11-21 16:00:00 15.9 6 Este 15 Sudeste 0 952.7 -- 38
2020-11-21 15:00:00 16.1 4 Noroeste 17 Sudeste 0 952.8 -- 40
2020-11-21 14:00:00 15.9 5 Sudeste 17 Sudeste 0 953.2 -- 38
2020-11-21 13:00:00 15.2 9 Sur 15 Sur 0 953.5 -- 44
2020-11-21 12:00:00 12.3 3 Nordeste 6 Noroeste 0 954.2 -- 81
2020-11-21 11:00:00 7.6 2 Sudoeste 6 Este 0 954.6 -- 93
2020-11-21 10:00:00 6.6 3 Nordeste 7 Nordeste 0 954.4 -- 93
2020-11-21 09:00:00 5.7 2 Sudeste 9 Oeste 0 953.7 -- 93
2020-11-21 08:00:00 6.2 2 Sur 4 Sur 0 953.3 -- 92
2020-11-21 07:00:00 5.2 2 Este 8 Oeste 0 952.7 -- 92
2020-11-21 06:00:00 5.2 3 Oeste 8 Oeste 0 952.5 -- 91
2020-11-21 05:00:00 4.9 4 Sudoeste 9 Sudoeste 0 952.6 -- 90
2020-11-21 04:00:00 5.4 3 Oeste 6 Oeste 0 952.5 -- 88
2020-11-21 03:00:00 6.7 2 Sur 4 Norte 0 952.5 -- 90
2020-11-21 02:00:00 6.1 2 Este 7 Nordeste 0 952.6 -- 90
2020-11-21 01:00:00 6 6 Oeste 15 Sudoeste 0 952.7 -- 90
2020-11-21 00:00:00 6 4 Noroeste 13 Oeste 0 952.8 -- 89
2020-11-20 23:00:00 6 5 Oeste 10 Oeste 0 952.9 -- 85
2020-11-20 22:00:00 7.3 4 Oeste 14 Oeste 0 952.6 -- 83
2020-11-20 21:00:00 7.5 5 Oeste 13 Sudoeste 0 952.4 -- 81
2020-11-20 20:00:00 8.5 4 Oeste 9 Oeste 0 952.1 -- 78
2020-11-20 19:00:00 10.7 4 Norte 8 Nordeste 0 951.7 -- 69
2020-11-20 18:00:00 14.2 3 Nordeste 14 Este 0 951.6 -- 60
2020-11-20 17:00:00 16.8 9 Nordeste 18 Nordeste 0 951.1 -- 48
2020-11-20 16:00:00 17.4 5 Este 14 Nordeste 0 951.1 -- 48
2020-11-20 15:00:00 17.8 4 Noroeste 12 Nordeste 0 951.5 -- 49
2020-11-20 14:00:00 16.7 4 Norte 18 Nordeste 0 952.7 -- 55
2020-11-20 13:00:00 15.6 11 Este 22 Este 0 953.3 -- 59
2020-11-20 12:00:00 15.1 13 Este 27 Nordeste 0 953.9 -- 57
2020-11-20 11:00:00 14.6 10 Norte 23 Norte 0 953.8 -- 55
2020-11-20 10:00:00 12.7 2 Sudoeste 7 Sur 0 953.6 -- 67
2020-11-20 09:00:00 8.6 3 Sudoeste 6 Sur 0 953.1 -- 88
2020-11-20 08:00:00 7 2 Norte 9 Oeste 0 953.1 -- 89
2020-11-20 07:00:00 5.9 3 Sudoeste 9 Sudoeste 0 953.2 -- 90
2020-11-20 06:00:00 5.5 4 Sudoeste 7 Oeste 0 953.4 -- 89
2020-11-20 05:00:00 5.7 3 Sudoeste 8 Noroeste 0 953.8 -- 87
2020-11-20 04:00:00 6.1 8 Oeste 12 Oeste 0 953.7 -- 87
2020-11-20 03:00:00 6.1 4 Oeste 10 Oeste 0 954.3 -- 86
2020-11-20 02:00:00 6.3 5 Oeste 9 Oeste 0 954.7 -- 85
2020-11-20 01:00:00 6.6 3 Sudoeste 7 Sudoeste 0 955.2 -- 82
2020-11-20 00:00:00 8.1 5 Oeste 9 Sudoeste 0 955.7 -- 79
2020-11-19 23:00:00 8.3 3 Sudoeste 8 Noroeste 0 956.1 -- 78
2020-11-19 22:00:00 8.7 3 Sudoeste 13 Sudoeste 0 956.3 -- 81
2020-11-19 21:00:00 9 9 Sudoeste 12 Sudoeste 0 955.8 -- 81
2020-11-19 20:00:00 9.7 4 Sudoeste 9 Oeste 0 955.6 -- 76
2020-11-19 19:00:00 11 3 Oeste 9 Norte 0 955.3 -- 70
2020-11-19 18:00:00 15.7 7 Norte 18 Este 0 954.7 -- 54
2020-11-19 17:00:00 18.3 9 Nordeste 23 Nordeste 0 954.7 -- 46
2020-11-19 16:00:00 19.1 13 Este 24 Este 0 954.8 -- 46
2020-11-19 15:00:00 19 14 Este 26 Este 0 955 -- 48
2020-11-19 14:00:00 18.3 17 Este 27 Nordeste 0 955.6 -- 54
2020-11-19 13:00:00 16.6 13 Nordeste 23 Nordeste 0 956.3 -- 65
2020-11-19 12:00:00 13.1 7 Este 13 Nordeste 0 956.7 -- 93
2020-11-19 11:00:00 11.5 5 Este 10 Nordeste 0 956.7 -- 95
2020-11-19 10:00:00 10.4 8 Nordeste 10 Nordeste 0 956.4 -- 95
2020-11-19 09:00:00 9.3 3 Noroeste 9 Oeste 0 955.7 -- 95
2020-11-19 08:00:00 8.5 9 Oeste 12 Oeste 0 954.9 -- 94
2020-11-19 07:00:00 6.9 4 Sudoeste 9 Oeste 0 954.4 -- 94
2020-11-19 06:00:00 6 5 Oeste 10 Oeste 0 954 -- 94
2020-11-19 05:00:00 5.7 4 Oeste 6 Oeste 0 953.8 -- 94
2020-11-19 04:00:00 5.6 5 Oeste 7 Sudoeste 0 953.7 -- 93
2020-11-19 03:00:00 7 6 Oeste 8 Oeste 0 953.7 -- 93
2020-11-19 02:00:00 7.6 0 Calma 9 Oeste 0 953.8 -- 93
2020-11-19 01:00:00 8.7 3 Oeste 6 Oeste 0 954 -- 92
2020-11-19 00:00:00 8.7 5 Oeste 7 Oeste 0 954.1 -- 91
2020-11-18 23:00:00 9.4 5 Oeste 7 Oeste 0 954.1 -- 88
2020-11-18 22:00:00 9.3 4 Oeste 12 Oeste 0 953.8 -- 82
2020-11-18 21:00:00 10.4 7 Oeste 9 Oeste 0 953.3 -- 81
2020-11-18 20:00:00 13.2 2 Sudeste 12 Sudoeste 0 953.1 -- 69
2020-11-18 19:00:00 14.3 10 Sudoeste 13 Oeste 0 952.7 -- 68
2020-11-18 18:00:00 17.1 8 Oeste 12 Sudoeste 0 952.2 -- 57
2020-11-18 17:00:00 20.8 8 Sur 15 Sudeste 0 952 -- 45
2020-11-18 16:00:00 21.9 8 Sur 14 Sudoeste 0 951.9 -- 42
2020-11-18 15:00:00 22 6 Sur 14 Sur 0 952 -- 41
2020-11-18 14:00:00 21.4 4 Sur 13 Sur 0 952.4 -- 44
2020-11-18 13:00:00 19.9 8 Sur 13 Sur 0 953.3 -- 51
2020-11-18 12:00:00 19 7 Sur 13 Sur 0 953.8 -- 55
2020-11-18 11:00:00 16 3 Este 5 Este 0 954 -- 71
2020-11-18 10:00:00 12 2 Sudeste 5 Sudeste 0 953.9 -- 93
2020-11-18 09:00:00 7.8 0 Calma 10 Oeste 0 953.8 -- 95
2020-11-18 08:00:00 6.2 4 Oeste 7 Oeste 0 953.2 -- 94
2020-11-18 07:00:00 5.1 2 Oeste 6 Oeste 0 953 -- 92
2020-11-18 06:00:00 5.9 4 Oeste 9 Sudoeste 0 953 -- 93
2020-11-18 05:00:00 6.1 9 Sudoeste 10 Sudoeste 0 952.8 -- 93
2020-11-18 04:00:00 6.9 0 Calma 6 Oeste 0 953.1 -- 93
2020-11-18 03:00:00 6.8 4 Oeste 5 Oeste 0 953.2 -- 92
2020-11-18 02:00:00 7.9 0 Calma 13 Oeste 0 953.2 -- 92
2020-11-18 01:00:00 8.8 6 Oeste 8 Oeste 0 953.5 -- 91
2020-11-18 00:00:00 9.1 3 Sudoeste 10 Oeste 0 953.6 -- 90
2020-11-17 23:00:00 9 5 Sudoeste 8 Sudoeste 0 953.9 -- 86
2020-11-17 22:00:00 9.5 7 Sudoeste 10 Oeste 0 953.6 -- 82
2020-11-17 21:00:00 10.1 4 Sudoeste 9 Sudoeste 0 953.2 -- 78
2020-11-17 20:00:00 12.9 3 Nordeste 14 Oeste 0 952.8 -- 67
2020-11-17 19:00:00 15.6 9 Oeste 12 Noroeste 0 952.2 -- 58
2020-11-17 18:00:00 18.3 8 Norte 19 Norte 0 951.9 -- 49
2020-11-17 17:00:00 21 7 Noroeste 19 Oeste 0 951.6 -- 43
2020-11-17 16:00:00 22 8 Oeste 27 Oeste 0 951.5 -- 40
2020-11-17 15:00:00 21.6 8 Oeste 20 Sudoeste 0 951.5 -- 44
2020-11-17 14:00:00 21.8 7 Sur 13 Este 0 951.7 -- 43
2020-11-17 13:00:00 20.4 6 Sudeste 13 Sudeste 0 952.5 -- 53
2020-11-17 12:00:00 18.4 4 Este 8 Este 0 953.3 -- 62
2020-11-17 11:00:00 15.6 3 Sudeste 6 Sudeste 0 953.6 -- 84
2020-11-17 10:00:00 10.8 2 Sudoeste 5 Sudoeste 0 953.4 -- 95
2020-11-17 09:00:00 7.9 4 Oeste 6 Sudoeste 0 952.9 -- 94
2020-11-17 08:00:00 6.3 3 Sudoeste 12 Oeste 0 952.4 -- 93
2020-11-17 07:00:00 6.3 4 Sudoeste 6 Sudoeste 0 951.9 -- 93
2020-11-17 06:00:00 7.1 2 Oeste 12 Oeste 0 951.6 -- 92
2020-11-17 05:00:00 7.1 4 Sudoeste 12 Sudoeste 0 951.6 -- 91
2020-11-17 04:00:00 7.5 5 Oeste 10 Sudoeste 0 951.6 -- 92
2020-11-17 03:00:00 8.5 5 Oeste 9 Sudoeste 0 951.6 -- 91
2020-11-17 02:00:00 8.8 3 Oeste 6 Sudoeste 0 952.1 -- 91
2020-11-17 01:00:00 9.8 3 Oeste 10 Oeste 0 952.1 -- 90
2020-11-17 00:00:00 10.9 8 Oeste 16 Oeste 0 952 -- 89
2020-11-16 23:00:00 10.7 8 Oeste 9 Oeste 0 951.9 -- 86
2020-11-16 22:00:00 12.7 3 Oeste 9 Nordeste 0 951.8 -- 83
2020-11-16 21:00:00 14.6 4 Nordeste 16 Norte 0 951.4 -- 70
2020-11-16 20:00:00 17.2 7 Nordeste 16 Nordeste 0 950.9 -- 61
2020-11-16 19:00:00 17 3 Este 14 Noroeste 0 950.3 -- 62
2020-11-16 18:00:00 18.2 8 Oeste 19 Oeste 0 949.6 -- 57
2020-11-16 17:00:00 20 7 Oeste 28 Oeste 0 949.3 -- 50
2020-11-16 16:00:00 20.8 9 Nordeste 26 Nordeste 0 948.8 -- 48
2020-11-16 15:00:00 21 5 Este 39 Oeste 0 948.7 -- 50
2020-11-16 14:00:00 20.4 11 Noroeste 32 Oeste 0 948.8 -- 54
2020-11-16 13:00:00 19.8 13 Oeste 32 Noroeste 0 949.3 -- 60
2020-11-16 12:00:00 17.9 9 Oeste 21 Oeste 0 950.2 -- 67
2020-11-16 11:00:00 16.8 5 Nordeste 22 Oeste 0 950.5 -- 70
2020-11-16 10:00:00 16.3 3 Nordeste 15 Oeste 0 949.8 -- 72
2020-11-16 09:00:00 16.4 10 Oeste 26 Oeste 0 949.1 -- 71
2020-11-16 08:00:00 14.7 15 Oeste 27 Oeste 0 948.3 -- 81
2020-11-16 07:00:00 10.8 2 Noroeste 10 Sudoeste 0 948.2 -- 86
2020-11-16 06:00:00 10.8 5 Oeste 12 Oeste 0 947.5 -- 85
2020-11-16 05:00:00 11.7 2 Sudoeste 6 Oeste 0 947.5 -- 81
2020-11-16 04:00:00 13.2 3 Este 12 Oeste 0 947.9 -- 77
2020-11-16 03:00:00 14.7 7 Oeste 11 Sudoeste 0 948.1 -- 72
2020-11-16 02:00:00 14.8 9 Sudoeste 11 Sudoeste 0 948.5 -- 72
2020-11-16 01:00:00 15.6 9 Sudoeste 21 Sudoeste 0 948.6 -- 69
2020-11-16 00:00:00 16.2 13 Sudoeste 18 Sudoeste 0 948.4 -- 67
2020-11-15 23:00:00 14.9 5 Sudoeste 12 Sudoeste 0 949 -- 73
2020-11-15 22:00:00 14.1 9 Sudoeste 15 Oeste 0 948.9 -- 75
2020-11-15 21:00:00 14.8 9 Oeste 13 Sudoeste 0 949.1 -- 74
2020-11-15 20:00:00 15 5 Sudoeste 14 Oeste 0 949 -- 70
2020-11-15 19:00:00 16.3 9 Oeste 10 Oeste 0 948.5 -- 66
2020-11-15 18:00:00 18.9 5 Oeste 22 Oeste 0 948 -- 57
2020-11-15 17:00:00 21.4 10 Oeste 25 Oeste 0 947.7 -- 48
2020-11-15 16:00:00 21.9 17 Oeste 26 Oeste 0 947.4 -- 47
2020-11-15 15:00:00 21.8 14 Oeste 40 Oeste 0 947.4 -- 47
2020-11-15 14:00:00 20.9 17 Oeste 32 Oeste 0 948 -- 49
2020-11-15 13:00:00 20.4 14 Sudoeste 28 Oeste 0 948.4 -- 50
2020-11-15 12:00:00 18.7 16 Oeste 35 Oeste 0 949.1 -- 56
2020-11-15 11:00:00 16.9 21 Oeste 42 Oeste 0 949 -- 61
2020-11-15 10:00:00 15.8 16 Oeste 37 Oeste 0 948.9 -- 65
2020-11-15 09:00:00 14.7 18 Oeste 37 Oeste 0 948.8 -- 69
2020-11-15 08:00:00 13.1 14 Oeste 30 Oeste 0 948.3 -- 75
2020-11-15 07:00:00 13.2 17 Oeste 34 Oeste 0 947.7 -- 75
2020-11-15 06:00:00 12.9 12 Oeste 27 Oeste 0 947.6 -- 79
2020-11-15 05:00:00 13.5 11 Oeste 26 Oeste 0 947.4 -- 79
2020-11-15 04:00:00 11.3 6 Sudoeste 25 Oeste 0 947.7 -- 92
2020-11-15 03:00:00 10.3 3 Sudoeste 7 Sudoeste 0 947.8 -- 90
2020-11-15 02:00:00 11.6 3 Oeste 5 Oeste 0 947.7 -- 90
2020-11-15 01:00:00 12.2 3 Norte 6 Nordeste 0 948 -- 88
2020-11-15 00:00:00 12.6 3 Noroeste 9 Sudoeste 0 948.4 -- 87
2020-11-14 23:00:00 13.6 5 Oeste 11 Oeste 0 948.5 -- 85
2020-11-14 22:00:00 13.9 10 Oeste 14 Sudoeste 0 948.3 -- 83
2020-11-14 21:00:00 13.9 8 Sudoeste 14 Oeste 0 948 -- 81
2020-11-14 20:00:00 13.8 7 Sudoeste 9 Oeste 0 947.7 -- 81
2020-11-14 19:00:00 15 5 Oeste 11 Sudoeste 0 947.3 -- 76
2020-11-14 18:00:00 15.6 7 Sur 10 Sudoeste 0 947 -- 73
2020-11-14 17:00:00 16.6 6 Sur 13 Sudoeste 0 946.8 -- 67
2020-11-14 16:00:00 17 9 Sudoeste 13 Oeste 0 946.8 -- 63
2020-11-14 15:00:00 17.1 6 Sur 12 Sur 0 947 -- 69
2020-11-14 14:00:00 16.6 6 Oeste 14 Sudoeste 0 947.2 -- 72
2020-11-14 13:00:00 14.6 2 Norte 5 Sur 0 947.9 -- 88
2020-11-14 12:00:00 13.5 4 Nordeste 5 Nordeste 0 948.4 -- 90
2020-11-14 11:00:00 12.7 3 Este 6 Nordeste 0 948.6 -- 92
2020-11-14 10:00:00 12.1 3 Nordeste 10 Oeste 0 948.6 -- 92
2020-11-14 09:00:00 12.7 7 Oeste 12 Oeste 0 948.3 -- 93
2020-11-14 08:00:00 11.2 2 Sudoeste 7 Sudoeste 0 947.4 -- 92
2020-11-14 07:00:00 10.9 0 Calma 6 Oeste 0 947.2 -- 92
2020-11-14 06:00:00 10.7 5 Oeste 6 Oeste 0 947.2 -- 92
2020-11-14 05:00:00 10.7 4 Sudoeste 6 Oeste 0 947 -- 91
2020-11-14 04:00:00 11 3 Sudoeste 8 Oeste 0 947.2 -- 91
2020-11-14 03:00:00 11.8 5 Sudoeste 9 Oeste 0 947.9 -- 91
2020-11-14 02:00:00 12.1 6 Oeste 9 Oeste 0 948.1 -- 90
2020-11-14 01:00:00 11.3 4 Sudoeste 5 Sudoeste 0 948.4 -- 89
2020-11-14 00:00:00 11.9 2 Este 8 Oeste 0 948.5 -- 89
2020-11-13 23:00:00 11 4 Sudoeste 8 Oeste 0 948.4 -- 88
2020-11-13 22:00:00 11.4 4 Oeste 9 Oeste 0 948.2 -- 87
2020-11-13 21:00:00 11.5 4 Oeste 10 Nordeste 0 947.9 -- 83
2020-11-13 20:00:00 13.2 7 Nordeste 13 Nordeste 0 947.5 -- 82
2020-11-13 19:00:00 13.8 8 Nordeste 13 Nordeste 0 947 -- 77
2020-11-13 18:00:00 15.2 0 Calma 9 Nordeste 0 946.3 -- 58
2020-11-13 17:00:00 18.6 3 Este 13 Sudeste 0 946.2 -- 46
2020-11-13 16:00:00 20.1 4 Sur 11 Sur 0 946 -- 44
2020-11-13 15:00:00 18.7 5 Este 13 Sudeste 0 946.3 -- 49
2020-11-13 14:00:00 19 5 Sudoeste 9 Sudoeste 0 946.6 -- 51
2020-11-13 13:00:00 17.1 5 Sudeste 12 Nordeste 0 947.2 -- 60
2020-11-13 12:00:00 16.7 7 Este 13 Nordeste 0 947.8 -- 63
2020-11-13 11:00:00 12.8 5 Este 19 Nordeste 0 948.1 -- 84
2020-11-13 10:00:00 12.3 11 Nordeste 17 Nordeste 0 948 -- 85
2020-11-13 09:00:00 11.5 2 Este 6 Sudoeste 0 947.6 -- 90
2020-11-13 08:00:00 10.4 2 Sudeste 6 Oeste 0 947.1 -- 90
2020-11-13 07:00:00 10 0 Calma 8 Oeste 0 946.7 -- 89
2020-11-13 06:00:00 9.9 3 Sur 8 Oeste 0 946.8 -- 88
2020-11-13 05:00:00 10 4 Sudoeste 7 Sudoeste 0 946.7 -- 87
2020-11-13 04:00:00 10.6 3 Sur 5 Este 0 947 -- 87
2020-11-13 03:00:00 10.7 3 Sur 8 Nordeste 0 947.3 -- 86
2020-11-13 02:00:00 11 5 Noroeste 16 Norte 0 947.5 -- 87
2020-11-13 01:00:00 9.8 2 Norte 8 Sudoeste 0 948 -- 89
2020-11-13 00:00:00 8.9 5 Sudoeste 9 Oeste 0 948 -- 88
2020-11-12 23:00:00 8.5 3 Oeste 8 Oeste 0 947.9 -- 83
2020-11-12 22:00:00 8.9 6 Oeste 8 Oeste 0 948.1 -- 79
2020-11-12 21:00:00 10.1 2 Nordeste 6 Nordeste 0 947.7 -- 75
2020-11-12 20:00:00 11 2 Sudoeste 5 Sudeste 0 947.9 -- 67
2020-11-12 19:00:00 13.1 5 Norte 13 Sur 0 947.6 -- 60
2020-11-12 18:00:00 15.1 7 Sur 19 Sudeste 0 947.2 -- 52
2020-11-12 17:00:00 17.1 12 Sudeste 23 Sur 0 947.1 -- 45
2020-11-12 16:00:00 19.2 10 Sudeste 21 Sudeste 0 947 -- 31
2020-11-12 15:00:00 19.2 8 Sur 18 Sudeste 0 947 -- 33
2020-11-12 14:00:00 18.8 8 Sur 19 Sudeste 0 947.8 -- 37
2020-11-12 13:00:00 18.2 10 Sudeste 15 Sudeste 0 948.4 -- 36
2020-11-12 12:00:00 15.9 7 Nordeste 13 Nordeste 0 949.4 -- 53
2020-11-12 11:00:00 14.2 4 Este 8 Nordeste 0 949.6 -- 66
2020-11-12 10:00:00 10.1 2 Sur 6 Nordeste 0 949.5 -- 90
2020-11-12 09:00:00 6 3 Sudoeste 7 Sudoeste 0 949.6 -- 93
2020-11-12 08:00:00 4.2 3 Oeste 5 Oeste 0 948.9 -- 92
2020-11-12 07:00:00 4.1 4 Sudeste 9 Oeste 0 948.7 -- 92
2020-11-12 06:00:00 3.5 7 Oeste 9 Oeste 0 948.9 -- 92
2020-11-12 05:00:00 3.4 2 Sudoeste 11 Sudoeste 0 949.2 -- 91
2020-11-12 04:00:00 4.7 10 Oeste 13 Oeste 0 949.2 -- 92
2020-11-12 03:00:00 4.5 0 Calma 5 Sudoeste 0 950 -- 90
2020-11-12 02:00:00 5 2 Oeste 5 Oeste 0 950.2 -- 90
2020-11-12 01:00:00 6.1 2 Oeste 12 Oeste 0 950.6 -- 88
2020-11-12 00:00:00 6.5 9 Sudoeste 12 Oeste 0 950.6 -- 88
2020-11-11 23:00:00 7.6 2 Nordeste 15 Oeste 0 950.7 -- 85
2020-11-11 22:00:00 8 8 Sudoeste 15 Oeste 0 950.3 -- 82
2020-11-11 21:00:00 10.1 14 Oeste 17 Oeste 0 950.3 -- 78
2020-11-11 20:00:00 10.7 6 Sudoeste 15 Oeste 0 949.9 -- 74
2020-11-11 19:00:00 12.2 9 Oeste 13 Sudoeste 0 949.8 -- 67
2020-11-11 18:00:00 15 8 Oeste 15 Oeste 0 949.1 -- 56
2020-11-11 17:00:00 17.7 10 Sudoeste 17 Oeste 0 949.3 -- 45
2020-11-11 16:00:00 17.1 9 Sur 17 Sur 0 949.4 -- 48
2020-11-11 15:00:00 18.3 11 Sur 20 Sur 0 949.4 -- 44
2020-11-11 14:00:00 18.4 7 Sudoeste 17 Sur 0 950 -- 42
2020-11-11 13:00:00 17.6 9 Sudoeste 18 Sur 0 950.7 -- 48
2020-11-11 12:00:00 16.8 6 Sur 12 Sudeste 0 951.6 -- 55
2020-11-11 11:00:00 12.6 3 Este 6 Este 0 952.1 -- 90
2020-11-11 10:00:00 9.4 3 Noroeste 8 Oeste 0 952.4 -- 93
2020-11-11 09:00:00 8.9 6 Oeste 10 Oeste 0 952.3 -- 93
2020-11-11 08:00:00 9.6 4 Oeste 9 Oeste 0 952.1 -- 93
2020-11-11 07:00:00 9.6 0 Calma 5 Oeste 0 952.1 -- 93
2020-11-11 06:00:00 9.3 2 Oeste 4 Sudoeste 0 952.2 -- 93
2020-11-11 05:00:00 8.9 5 Sudoeste 8 Sudoeste 0 952.5 -- 93
2020-11-11 04:00:00 8.4 5 Sudoeste 6 Sudoeste 0 952.6 -- 92
2020-11-11 03:00:00 7.9 4 Oeste 6 Oeste 0 952.7 -- 92
2020-11-11 02:00:00 8 5 Oeste 8 Oeste 0 953 -- 92
2020-11-11 01:00:00 7.3 0 Calma 8 Oeste 0 953.1 -- 90
2020-11-11 00:00:00 7.9 3 Sur 12 Oeste 0 953.1 -- 90
2020-11-10 23:00:00 8.2 5 Sudoeste 13 Oeste 0 952.8 -- 87
2020-11-10 22:00:00 9.6 10 Oeste 13 Oeste 0 952.8 -- 86
2020-11-10 21:00:00 10.7 7 Oeste 12 Norte 0 952.6 -- 81
2020-11-10 20:00:00 13.1 7 Nordeste 14 Nordeste 0 952.2 -- 75
2020-11-10 19:00:00 14.1 6 Nordeste 15 Nordeste 0 951.8 -- 62
2020-11-10 18:00:00 16.9 6 Noroeste 15 Norte 0 951.2 -- 41
2020-11-10 17:00:00 18.4 6 Norte 13 Oeste 0 950.7 -- 38
2020-11-10 16:00:00 20.1 11 Oeste 19 Oeste 0 950.6 -- 33
2020-11-10 15:00:00 20 7 Norte 18 Nordeste 0 950.5 -- 32
2020-11-10 14:00:00 19.9 12 Nordeste 19 Norte 0 950.7 -- 32
2020-11-10 13:00:00 18.9 8 Norte 15 Norte 0 951.5 -- 32
2020-11-10 12:00:00 18.9 4 Nordeste 16 Norte 0 951.9 -- 39
2020-11-10 11:00:00 17.1 13 Norte 19 Norte 0 952.1 -- 43
2020-11-10 10:00:00 15.4 10 Norte 19 Norte 0 951.9 -- 54
2020-11-10 09:00:00 12 5 Sudeste 8 Sudeste 0 951.6 -- 78
2020-11-10 08:00:00 8.9 2 Sudoeste 19 Este 0 951 -- 82
2020-11-10 07:00:00 11.3 6 Sur 21 Este 0 950.3 -- 73
2020-11-10 06:00:00 11.4 4 Sudeste 27 Norte 0 950 -- 73
2020-11-10 05:00:00 13.5 11 Noroeste 33 Norte 0 949.8 -- 66
2020-11-10 04:00:00 13.3 18 Norte 32 Norte 0 949.8 -- 67
2020-11-10 03:00:00 9.6 0 Calma 9 Sudoeste 0 950 -- 86
2020-11-10 02:00:00 9.7 2 Sudoeste 11 Sudeste 0 950 -- 85
2020-11-10 01:00:00 10.6 6 Sudeste 10 Sur 0 950.2 -- 82
2020-11-10 00:00:00 11.4 4 Sur 12 Sudeste 0 950.4 -- 76
2020-11-09 23:00:00 14.7 4 Este 30 Noroeste 0 950.3 -- 61
2020-11-09 22:00:00 15 16 Noroeste 42 Noroeste 0 950 -- 65
2020-11-09 21:00:00 15.1 17 Norte 33 Noroeste 0 949.6 -- 63
2020-11-09 20:00:00 16.1 14 Noroeste 26 Noroeste 0 949.4 -- 58
2020-11-09 19:00:00 16.2 10 Norte 18 Noroeste 0 948.8 -- 57
2020-11-09 18:00:00 17 5 Norte 17 Norte 0 948.3 -- 53
2020-11-09 17:00:00 19.3 5 Sur 24 Nordeste 0 947.9 -- 41
2020-11-09 16:00:00 19.4 7 Este 26 Nordeste 0 947.9 -- 40
2020-11-09 15:00:00 20.3 8 Nordeste 21 Este 0 947.9 -- 38
2020-11-09 14:00:00 20.1 9 Norte 22 Norte 0 948.1 -- 40
2020-11-09 13:00:00 19.4 10 Noroeste -- -- 0 948.5 -- 43
2020-11-09 12:00:00 18.6 8 Oeste 18 Nordeste 0 949.1 -- 46
2020-11-09 11:00:00 16.8 4 Sudeste 8 Este 0 949.2 -- 67
2020-11-09 10:00:00 12.9 0 Calma 5 Sur 0 949.2 -- 91
2020-11-09 09:00:00 7.8 3 Sudoeste 5 Sudoeste 0 949 -- 93
2020-11-09 08:00:00 6.6 2 Sudeste 8 Sudoeste 0 948.3 -- 93
2020-11-09 07:00:00 6.2 3 Sudoeste 4 Sudoeste 0 948 -- 93
2020-11-09 06:00:00 6.9 3 Oeste 7 Oeste 0 947.9 -- 93
2020-11-09 05:00:00 6.4 3 Sudoeste 8 Oeste 0 947.8 -- 92
2020-11-09 04:00:00 6.2 2 Sudoeste 6 Sudoeste 0 947.8 -- 92
2020-11-09 03:00:00 6.6 3 Oeste 6 Oeste 0 948.2 -- 91
2020-11-09 02:00:00 6.9 2 Oeste 9 Oeste 0 948.2 -- 91
2020-11-09 01:00:00 7.2 3 Norte 8 Oeste 0 948.5 -- 90
2020-11-09 00:00:00 8.1 7 Oeste 10 Oeste 0 948.8 -- 90
2020-11-08 23:00:00 9 2 Nordeste 12 Oeste 0 949 -- 87
2020-11-08 22:00:00 9.3 4 Oeste 6 Oeste 0 948.7 -- 84
2020-11-08 21:00:00 11.1 11 Noroeste 17 Oeste 0 948.4 -- 82
2020-11-08 20:00:00 11.7 14 Oeste 16 Oeste 0 948.4 -- 78
2020-11-08 19:00:00 12.2 7 Sudoeste 11 Sudoeste 0 948.3 -- 74
2020-11-08 18:00:00 15.4 5 Oeste 8 Oeste 0 947.9 -- 62
2020-11-08 17:00:00 19 4 Sudoeste 12 Sudoeste 0 947.9 -- 47
2020-11-08 16:00:00 18.9 6 Sur 14 Sur 0 948.1 -- 48
2020-11-08 15:00:00 18.9 7 Sur 13 Sur 0 948.3 -- 49
2020-11-08 14:00:00 18.6 3 Sur 15 Sur 0 948.8 -- 51
2020-11-08 13:00:00 18.2 9 Sur 20 Sudeste 0 949.7 -- 51
2020-11-08 12:00:00 17.9 8 Sudeste 16 Sudeste 0 950.4 -- 51
2020-11-08 11:00:00 13.1 2 Sur 5 Sudeste 0 950.5 -- 67
2020-11-08 10:00:00 11.8 3 Sudeste 5 Sudeste 0 950.6 -- 77
2020-11-08 09:00:00 7.7 2 Sudoeste 5 Sudoeste 0 950.5 -- 91
2020-11-08 08:00:00 4.6 2 Oeste 7 Oeste 0 950.1 -- 91
2020-11-08 07:00:00 4.4 3 Oeste 9 Oeste 0 949.9 -- 89
2020-11-08 06:00:00 5.5 2 Sudoeste 14 Oeste 0 950 -- 89
2020-11-08 05:00:00 6.1 12 Oeste 15 Oeste 0 950 -- 89
2020-11-08 04:00:00 6 3 Norte 9 Oeste 0 950.1 -- 88
2020-11-08 03:00:00 6.3 6 Sudoeste 14 Sudoeste 0 950.3 -- 86
2020-11-08 02:00:00 6.7 6 Oeste 11 Oeste 0 950.5 -- 85
2020-11-08 01:00:00 7.4 5 Oeste 9 Oeste 0 950.6 -- 81
2020-11-08 00:00:00 8.5 3 Sudoeste 12 Sudeste 0 950.7 -- 78
2020-11-07 23:00:00 10.4 5 Nordeste 12 Sudoeste 0 950.7 -- 71
2020-11-07 22:00:00 12.1 6 Sudoeste 23 Oeste 0 950.4 -- 63
2020-11-07 21:00:00 12.3 11 Oeste 14 Sudoeste 0 949.9 -- 63
2020-11-07 20:00:00 12.2 5 Sudoeste 15 Oeste 0 949.8 -- 64
2020-11-07 19:00:00 13.4 5 Sur 16 Sudoeste 0 949.3 -- 61
2020-11-07 18:00:00 15.6 9 Sudoeste 29 Oeste 0 948.4 -- 52
2020-11-07 17:00:00 18.4 18 Oeste 32 Oeste 0 947.9 -- 42
2020-11-07 16:00:00 18.7 18 Oeste 34 Oeste 0 947.5 -- 47
2020-11-07 15:00:00 19.5 16 Oeste 27 Oeste 0 947.1 -- 47
2020-11-07 14:00:00 19.2 16 Oeste 31 Sudoeste 0 946.6 -- 45
2020-11-07 13:00:00 18.8 17 Sudoeste 32 Sudoeste 0 946.7 -- 51
2020-11-07 12:00:00 19 21 Sudoeste 35 Sudoeste 0 946.6 -- 48
2020-11-07 11:00:00 16.6 2 Sudeste 7 Nordeste 0 946.2 -- 75
2020-11-07 10:00:00 12.6 2 Nordeste 13 Oeste 0 945.4 -- 89
2020-11-07 09:00:00 11.9 11 Sudoeste 17 Oeste 0 944.6 -- 89
2020-11-07 08:00:00 11.2 10 Oeste 16 Sudoeste 0 944.1 -- 90
2020-11-07 07:00:00 11.4 6 Nordeste 17 Sudoeste 1 943 -- 88
2020-11-07 06:00:00 11.7 11 Oeste -- -- 3.8 943.7 -- 84
2020-11-07 05:00:00 14.8 12 Oeste 42 Oeste 0 943.7 -- 81
2020-11-07 04:00:00 15.6 7 Nordeste 19 Norte 0 942.1 -- 83
2020-11-07 03:00:00 15.3 13 Nordeste 27 Nordeste 0.2 941.8 -- 88
2020-11-07 02:00:00 15.4 14 Nordeste 27 Nordeste 0 942.4 -- 88
2020-11-07 01:00:00 15.7 19 Nordeste 35 Nordeste 0 942.6 -- 86
2020-11-07 00:00:00 15.9 21 Nordeste 35 Nordeste 0 943 -- 84
2020-11-06 23:00:00 15.7 20 Nordeste 36 Nordeste 0 943.3 -- 86
2020-11-06 22:00:00 15.6 18 Nordeste 33 Nordeste 0 943.9 -- 85
2020-11-06 21:00:00 15.6 20 Nordeste 37 Nordeste 0 944 -- 86
2020-11-06 20:00:00 15.6 15 Nordeste 28 Nordeste 0 944.5 -- 86
2020-11-06 19:00:00 15.7 16 Nordeste 29 Nordeste 0 944.7 -- 86
2020-11-06 18:00:00 16.3 18 Nordeste 30 Nordeste 0 944.4 -- 83
2020-11-06 17:00:00 17 19 Nordeste 37 Nordeste 0 944.7 -- 81
2020-11-06 16:00:00 18.8 19 Nordeste 39 Nordeste 0 944.8 -- 72
2020-11-06 15:00:00 18.9 21 Nordeste 37 Nordeste 0 944.9 -- 71
2020-11-06 14:00:00 19.6 23 Nordeste 41 Nordeste 0 945.5 -- 68
2020-11-06 13:00:00 19.6 21 Nordeste 41 Nordeste 0 946.2 -- 70
2020-11-06 12:00:00 18.3 28 Nordeste 41 Nordeste 0 947 -- 73
2020-11-06 11:00:00 17.1 19 Nordeste 38 Nordeste 0 947.3 0.5 82
2020-11-06 10:00:00 15.9 19 Nordeste 37 Nordeste 0 947.5 -- 90
2020-11-06 09:00:00 14.8 19 Nordeste 39 Nordeste 0 947 -- 93
2020-11-06 08:00:00 14.1 17 Nordeste 29 Este 0 946.8 -- 94
2020-11-06 07:00:00 13.8 16 Nordeste 30 Nordeste 0 946.5 -- 94
2020-11-06 06:00:00 13.6 13 Nordeste 27 Nordeste 0 946.7 -- 94
2020-11-06 05:00:00 13.4 18 Nordeste 31 Nordeste 0 946.8 -- 94
2020-11-06 04:00:00 13.2 16 Nordeste 29 Nordeste 0 946.9 -- 93
2020-11-06 03:00:00 13.3 13 Nordeste 23 Nordeste 0 947.3 -- 93
2020-11-06 02:00:00 13.1 14 Nordeste 26 Nordeste 0 946.8 -- 92
2020-11-06 01:00:00 12.8 10 Nordeste 18 Nordeste 0 946.6 -- 92
2020-11-06 00:00:00 12.8 8 Nordeste 19 Nordeste 0 947.1 -- 92
2020-11-05 23:00:00 12.9 10 Nordeste 22 Nordeste 0 947.2 -- 92
2020-11-05 22:00:00 12.9 12 Nordeste 22 Nordeste 0 946.8 -- 92
2020-11-05 21:00:00 13 12 Nordeste 20 Nordeste 0 946.8 -- 92
2020-11-05 20:00:00 13.1 9 Nordeste 19 Nordeste 0 946.6 -- 90
2020-11-05 19:00:00 13.4 9 Nordeste 20 Nordeste 0.2 946.3 -- 90
2020-11-05 18:00:00 13.8 13 Nordeste 21 Nordeste 0 945.4 -- 89
2020-11-05 17:00:00 14.3 10 Nordeste 26 Nordeste 0 945.5 -- 88
2020-11-05 16:00:00 15.3 13 Nordeste 36 Este 0 945.5 -- 80
2020-11-05 15:00:00 16.8 13 Este 39 Este 0 945.3 -- 72
2020-11-05 14:00:00 15 13 Nordeste 32 Nordeste 0 945.7 -- 91
2020-11-05 13:00:00 13.5 20 Nordeste 40 Nordeste 0 946.2 -- 93
2020-11-05 12:00:00 13.3 24 Nordeste 40 Este 0.2 946.6 -- 94
2020-11-05 11:00:00 12 24 Nordeste 49 Nordeste 0.8 947.4 -- 94
2020-11-05 10:00:00 12.1 21 Nordeste 34 Nordeste 0 947.3 -- 94
2020-11-05 09:00:00 11.8 14 Nordeste 31 Nordeste 0 947.6 -- 94
2020-11-05 08:00:00 11.4 19 Nordeste 28 Nordeste 0 946.3 -- 94
2020-11-05 07:00:00 11.3 18 Nordeste 37 Nordeste 0 947 -- 93
2020-11-05 06:00:00 11 22 Nordeste 40 Nordeste 0 946 -- 93
2020-11-05 05:00:00 10.9 17 Nordeste 36 Nordeste 0 946.1 -- 93
2020-11-05 04:00:00 10.7 27 Nordeste 44 Nordeste 0 945.9 -- 93
2020-11-05 03:00:00 10.9 23 Nordeste 37 Nordeste 0 946.4 -- 91
2020-11-05 02:00:00 10.7 18 Este 38 Nordeste 0 946.6 -- 92
2020-11-05 01:00:00 10.3 16 Este 30 Nordeste 0 946.7 -- 90
2020-11-05 00:00:00 10.2 21 Nordeste 30 Nordeste 0 946.6 -- 89
2020-11-04 23:00:00 10.4 20 Nordeste 35 Nordeste 0 946.7 -- 85
2020-11-04 22:00:00 10.3 12 Nordeste 31 Nordeste 0 946.7 -- 84
2020-11-04 21:00:00 10.4 18 Nordeste 33 Nordeste 0 946.2 -- 85
2020-11-04 20:00:00 10.3 19 Este 34 Nordeste 0 945.5 -- 86
2020-11-04 19:00:00 10 17 Nordeste 42 Nordeste 0 945.2 -- 88
2020-11-04 18:00:00 10.2 22 Nordeste 42 Nordeste 0 944.6 -- 86
2020-11-04 17:00:00 10.9 24 Nordeste 41 Nordeste 0 944.2 -- 81
2020-11-04 16:00:00 11.4 23 Nordeste 41 Nordeste 0 944.2 -- 80
2020-11-04 15:00:00 11.8 22 Nordeste 33 Nordeste 0 944.5 -- 80
2020-11-04 14:00:00 12.2 17 Nordeste 31 Nordeste 0 944.8 -- 79
2020-11-04 13:00:00 12.1 18 Nordeste 26 Nordeste 0 945.5 -- 82
2020-11-04 12:00:00 12.3 15 Nordeste 27 Nordeste 0 946.1 -- 82
2020-11-04 11:00:00 13.6 18 Nordeste 27 Nordeste 0 946.2 0.1 75
2020-11-04 10:00:00 13.8 8 Este 23 Este 0 946.3 -- 79
2020-11-04 09:00:00 12.3 9 Este 22 Este 0 945.8 -- 87
2020-11-04 08:00:00 11.8 10 Nordeste 17 Nordeste 0 946.1 -- 88
2020-11-04 07:00:00 12.4 9 Nordeste 14 Nordeste 0 946.3 -- 88
2020-11-04 06:00:00 12.5 4 Nordeste 7 Este 0 946.6 -- 88
2020-11-04 05:00:00 12.4 3 Este 8 Nordeste 0 946.7 -- 87
2020-11-04 04:00:00 12.9 2 Este 6 Este 0 947.2 -- 85
2020-11-04 03:00:00 13.2 0 Calma 4 Nordeste 0 948.3 -- 85
2020-11-04 02:00:00 13.1 2 Sudoeste 8 Sudoeste 0 949 -- 85
2020-11-04 01:00:00 13.4 0 Calma 14 Nordeste 0 949.2 -- 82
2020-11-04 00:00:00 14.2 6 Nordeste 17 Norte 0 949.8 -- 81
2020-11-03 23:00:00 14.2 12 Nordeste 18 Nordeste 0 950.2 -- 82
2020-11-03 22:00:00 14.4 8 Nordeste 23 Este 0 950.8 -- 81
2020-11-03 21:00:00 14.7 12 Este 22 Este 0 950.5 -- 80
2020-11-03 20:00:00 14.7 14 Nordeste 24 Nordeste 0 950.2 -- 80
2020-11-03 19:00:00 15.1 13 Nordeste 24 Este 0 950 -- 78
2020-11-03 18:00:00 15.6 18 Nordeste 31 Nordeste 0 949.4 -- 72
2020-11-03 17:00:00 17.8 19 Nordeste 31 Nordeste 0 949 -- 64
2020-11-03 16:00:00 19.8 18 Nordeste 27 Nordeste 0 948.8 -- 54
2020-11-03 15:00:00 21.4 11 Nordeste 20 Nordeste 0 948.9 -- 43
2020-11-03 14:00:00 21.5 9 Este 19 Nordeste 0 949.3 -- 42
2020-11-03 13:00:00 19.6 10 Nordeste 18 Nordeste 0 949.9 -- 50
2020-11-03 12:00:00 18.2 10 Nordeste 19 Nordeste 0 950.6 -- 58
2020-11-03 11:00:00 15.9 12 Nordeste 21 Este 0 950.9 -- 69
2020-11-03 10:00:00 14.2 5 Este 11 Nordeste 0 950.6 -- 71
2020-11-03 09:00:00 11 4 Este 12 Oeste 0 950.2 -- 69
2020-11-03 08:00:00 6.6 8 Sudoeste 12 Sudoeste 0 949.5 -- 85
2020-11-03 07:00:00 6.5 2 Oeste 6 Oeste 0 948.8 -- 84
2020-11-03 06:00:00 6.8 0 Calma 4 Sudoeste 0 948.8 -- 80
2020-11-03 05:00:00 7 0 Calma 7 Sudoeste 0 948.8 -- 79
2020-11-03 04:00:00 7.9 4 Oeste 7 Sudoeste 0 948.8 -- 77
2020-11-03 03:00:00 7.8 0 Calma 7 Sudoeste 0 949 -- 77
2020-11-03 02:00:00 8.3 3 Oeste 6 Oeste 0 949 -- 73
2020-11-03 01:00:00 9.1 7 Sudoeste 9 Oeste 0 949.2 -- 72
2020-11-03 00:00:00 9 3 Oeste 8 Oeste 0 949.4 -- 71
2020-11-02 23:00:00 11 4 Oeste 10 Oeste 0 949.5 -- 64
2020-11-02 22:00:00 12.1 7 Sudoeste 12 Sudoeste 0 949.5 -- 60
2020-11-02 21:00:00 13.1 6 Sudoeste 13 Oeste 0 949.3 -- 53
2020-11-02 20:00:00 16.7 0 Calma 16 Oeste 0 948.9 -- 41
2020-11-02 19:00:00 18.7 10 Oeste 13 Oeste 0 948.2 -- 34
2020-11-02 18:00:00 21.6 6 Oeste 13 Sudoeste 0 947.7 -- 28
2020-11-02 17:00:00 26 6 Sudoeste 17 Sudoeste 0 947.6 -- 20
2020-11-02 16:00:00 26.8 10 Sudoeste 23 Sudoeste 0 947.7 -- 20
2020-11-02 15:00:00 26.8 10 Sudoeste 21 Sudoeste 0 947.8 -- 20
2020-11-02 14:00:00 26.8 12 Sudoeste 23 Sudoeste 0 948.3 -- 21
2020-11-02 13:00:00 26.3 7 Sudeste 14 Sur 0 949.1 -- 21
2020-11-02 12:00:00 25.4 5 Sudeste 10 Sudeste 0 949.8 -- 26
2020-11-02 11:00:00 23.5 3 Sudeste 5 Este 0 950.1 -- 30
2020-11-02 10:00:00 17.9 3 Este 5 Sudeste 0 950.3 -- 44
2020-11-02 09:00:00 13.4 2 Este 5 Sudoeste 0 950 -- 59
2020-11-02 08:00:00 7.3 2 Noroeste 6 Oeste 0 949.4 -- 79
2020-11-02 07:00:00 7.1 4 Oeste 6 Oeste 0 949.1 -- 79
2020-11-02 06:00:00 6.2 4 Oeste 6 Oeste 0 949.2 -- 80
2020-11-02 05:00:00 7.2 4 Oeste 8 Oeste 0 949.1 -- 77
2020-11-02 04:00:00 7 2 Sudoeste 8 Oeste 0 949.1 -- 77
2020-11-02 03:00:00 7.9 6 Oeste 11 Sudoeste 0 949.5 -- 75
2020-11-02 02:00:00 7.6 4 Oeste 7 Oeste 0 949.7 -- 74
2020-11-02 01:00:00 8.4 3 Oeste 8 Oeste 0 950 -- 71
2020-11-02 00:00:00 9 5 Sudoeste 8 Oeste 0 950.4 -- 68
2020-11-01 23:00:00 11.6 2 Oeste 10 Oeste 0 950.5 -- 59
2020-11-01 22:00:00 13.5 4 Oeste 15 Oeste 0 950.4 -- 52
2020-11-01 21:00:00 13.4 10 Sudoeste 13 Sudoeste 0 950.2 -- 53
2020-11-01 20:00:00 14.8 8 Oeste 11 Oeste 0 950 -- 47
2020-11-01 19:00:00 18 5 Sudoeste 13 Noroeste 0 949.7 -- 36
2020-11-01 18:00:00 23.8 11 Noroeste 21 Noroeste 0 949.1 -- 24
2020-11-01 17:00:00 26.2 4 Noroeste 19 Oeste 0 949 -- 20
2020-11-01 16:00:00 26.9 5 Norte 17 Oeste 0 949.1 -- 19
2020-11-01 15:00:00 27.4 13 Oeste 26 Oeste 0 949.4 -- 18
2020-11-01 14:00:00 27.4 6 Sudoeste 14 Norte 0 949.8 -- 19
2020-11-01 13:00:00 25.4 6 Nordeste 25 Nordeste 0 950.6 -- 25
2020-11-01 12:00:00 24.4 8 Noroeste 39 Noroeste 0 951.4 -- 28
2020-11-01 11:00:00 22.5 10 Norte 31 Norte 0 951.5 -- 30
2020-11-01 10:00:00 21.4 6 Sudeste 21 Noroeste 0 951.3 -- 33
2020-11-01 09:00:00 16.4 6 Sudeste 13 Sudoeste 0 951 -- 48
2020-11-01 08:00:00 12.6 6 Sudeste 14 Sudeste 0 950.6 -- 60
2020-11-01 07:00:00 11.9 6 Sur 19 Este 0 950.4 -- 62
2020-11-01 06:00:00 11.8 5 Este 16 Este 0 950.5 -- 61
2020-11-01 05:00:00 10.3 4 Sudeste 11 Sur 0 950.7 -- 67
2020-11-01 04:00:00 10.8 3 Este 10 Oeste 0 950.8 -- 65
2020-11-01 03:00:00 9.8 4 Sur 11 Sudoeste 0 951 -- 69
2020-11-01 02:00:00 8.8 3 Oeste 12 Oeste 0 951.1 -- 70
2020-11-01 01:00:00 9.9 3 Sur 6 Sudoeste 0 951.4 -- 64
2020-11-01 00:00:00 11.3 4 Sudoeste 9 Oeste 0 951.5 -- 60
2020-10-31 23:00:00 13.2 4 Norte 9 Norte 0 951.5 -- 55
2020-10-31 22:00:00 11.9 3 Sudoeste 6 Sudoeste 0 951.5 -- 59
2020-10-31 21:00:00 13.3 3 Sudoeste 12 Sudoeste 0 951.1 -- 50
2020-10-31 20:00:00 15.1 5 Sudoeste 10 Oeste 0 950.5 -- 43
2020-10-31 19:00:00 20.7 5 Sur 16 Noroeste 0 950 -- 28
2020-10-31 18:00:00 23.6 9 Noroeste 27 Oeste 0 949.6 -- 23
2020-10-31 17:00:00 26 4 Nordeste 14 Norte 0 949.6 -- 19
2020-10-31 16:00:00 26.4 6 Sudeste 18 Sur 0 949.4 -- 22
2020-10-31 15:00:00 24.4 9 Sur 19 Sudoeste 0 949.6 -- 28
2020-10-31 14:00:00 24.4 12 Sur 19 Sur 0 950.4 -- 28
2020-10-31 13:00:00 24.6 3 Sudeste 10 Este 0 951.1 -- 29
2020-10-31 12:00:00 22.3 7 Nordeste 13 Nordeste 0 951.6 -- 35
2020-10-31 11:00:00 20.5 3 Este 6 Nordeste 0 952 -- 41
2020-10-31 10:00:00 16.1 2 Sudeste 8 Nordeste 0 952.3 -- 56
2020-10-31 09:00:00 11.2 0 Calma 4 Nordeste 0 952.2 -- 80
2020-10-31 08:00:00 6 3 Norte 7 Oeste 0 951.9 -- 90
2020-10-31 07:00:00 4.8 3 Oeste 5 Sudoeste 0 951.6 -- 89
2020-10-31 06:00:00 4.8 4 Oeste 6 Sudoeste 0 951.4 -- 89
2020-10-31 05:00:00 4.9 3 Sudoeste 6 Sudoeste 0 951.2 -- 87
2020-10-31 04:00:00 5.9 3 Sudoeste 8 Sudoeste 0 951.3 -- 86
2020-10-31 03:00:00 6.3 4 Sudoeste 8 Sudoeste 0 951.5 -- 86
2020-10-31 02:00:00 6.2 4 Oeste 6 Sudoeste 0 951.8 -- 83
2020-10-31 01:00:00 7.3 5 Sudoeste 9 Oeste 0 952.1 -- 81
2020-10-31 00:00:00 8.9 0 Calma 13 Sudoeste 0 952.2 -- 75
2020-10-30 23:00:00 10.1 12 Sudoeste 15 Oeste 0 952.3 -- 73
2020-10-30 22:00:00 10.1 6 Sudoeste 10 Oeste 0 952.3 -- 70
2020-10-30 21:00:00 12.9 5 Sudoeste 17 Oeste 0 951.8 -- 61
2020-10-30 20:00:00 13.2 5 Oeste 13 Oeste 0 951.6 -- 57
2020-10-30 19:00:00 15.9 7 Sudoeste 10 Sur 0 951.3 -- 49
2020-10-30 18:00:00 20.7 6 Sudoeste 12 Sur 0 950.9 -- 34
2020-10-30 17:00:00 24.3 8 Sur 17 Sudoeste 0 950.7 -- 26
2020-10-30 16:00:00 25 8 Sur 17 Sudoeste 0 950.9 -- 26
2020-10-30 15:00:00 25 8 Sur 16 Sur 0 951.1 -- 27
2020-10-30 14:00:00 24.3 7 Sur 19 Sudeste 0 951.7 -- 28
2020-10-30 13:00:00 23.5 10 Sur 24 Sudeste 0 952.3 -- 30
2020-10-30 12:00:00 22.5 10 Sur 17 Sudeste 0 953 -- 34
2020-10-30 11:00:00 20 3 Este 6 Sudeste 0 953.1 -- 49
2020-10-30 10:00:00 15.7 3 Sudeste 5 Este 0 953.2 -- 64
2020-10-30 09:00:00 10.9 2 Este 3 Nordeste 0 953.1 -- 88
2020-10-30 08:00:00 6.2 0 Calma 7 Oeste 0 952.6 -- 91
2020-10-30 07:00:00 5.8 7 Oeste 12 Oeste 0 952.4 -- 91
2020-10-30 06:00:00 5.3 3 Nordeste 6 Oeste 0 952.4 -- 90
2020-10-30 05:00:00 5.2 5 Sudoeste 6 Sudoeste 0 952.4 -- 90
2020-10-30 04:00:00 7 2 Noroeste 8 Sudoeste 0 952.5 -- 89
2020-10-30 03:00:00 6.7 4 Oeste 8 Oeste 0 952.7 -- 89
2020-10-30 02:00:00 6 3 Oeste 5 Sudoeste 0 953 -- 85
2020-10-30 01:00:00 8.3 2 Norte 7 Sudoeste 0 953.1 -- 85
2020-10-30 00:00:00 8.7 6 Sudoeste 8 Sudoeste 0 953.3 -- 83
2020-10-29 23:00:00 10.1 2 Noroeste 11 Oeste 0 953.3 -- 80
2020-10-29 22:00:00 10.5 7 Oeste 10 Sudoeste 0 953.1 -- 79
2020-10-29 21:00:00 11.5 2 Sudoeste 6 Oeste 0 952.6 -- 70
2020-10-29 20:00:00 14.6 9 Oeste 14 Oeste 0 952.4 -- 62
2020-10-29 19:00:00 16.5 6 Sudoeste 17 Oeste 0 951.9 -- 55
2020-10-29 18:00:00 20 5 Oeste 9 Oeste 0 951.4 -- 40
2020-10-29 17:00:00 23.5 5 Oeste 21 Oeste 0 951.2 -- 30
2020-10-29 16:00:00 23.9 12 Oeste 29 Sudoeste 0 951.1 -- 32
2020-10-29 15:00:00 23.6 12 Sur 27 Sudoeste 0 951 -- 33
2020-10-29 14:00:00 23.3 11 Sur 24 Sur 0 951.6 -- 34
2020-10-29 13:00:00 23 8 Sur 13 Sur 0 952.7 -- 36
2020-10-29 12:00:00 21.5 3 Noroeste 11 Nordeste 0 953.3 -- 42
2020-10-29 11:00:00 20.1 7 Este 13 Sudeste 0 953.4 -- 46
2020-10-29 10:00:00 17.7 4 Sur 7 Sudeste 0 953.2 -- 55
2020-10-29 09:00:00 13.3 2 Sur 9 Sudoeste 0 952.8 -- 70
2020-10-29 08:00:00 8.2 3 Sudoeste 7 Sudoeste 0 952.1 -- 86
2020-10-29 07:00:00 8.7 4 Sudoeste 7 Sudoeste 0 951.7 -- 81
2020-10-29 06:00:00 10.5 3 Sudeste 12 Sur 0 951.6 -- 75
2020-10-29 05:00:00 14.3 9 Sur 39 Noroeste 0 951.1 -- 63
2020-10-29 04:00:00 14.5 18 Norte 41 Noroeste 0 950.9 -- 66
2020-10-29 03:00:00 12.1 4 Este 14 Este 0 950.5 -- 74
2020-10-29 02:00:00 12.7 5 Sur 19 Noroeste 0 950.4 -- 71
2020-10-29 01:00:00 14.8 11 Oeste 30 Oeste 0 950.4 -- 63
2020-10-29 00:00:00 15.9 17 Noroeste 42 Noroeste 0 950.6 -- 58
2020-10-28 23:00:00 16.2 26 Noroeste 46 Noroeste 0 950.3 -- 56
2020-10-28 22:00:00 16.7 16 Noroeste 36 Noroeste 0 950.2 -- 58
2020-10-28 21:00:00 17.2 19 Noroeste 35 Noroeste 0 949.8 -- 56
2020-10-28 20:00:00 18.3 22 Noroeste 31 Noroeste 0 949.1 -- 50
2020-10-28 19:00:00 18.3 18 Noroeste 29 Noroeste 0 948.4 -- 52
2020-10-28 18:00:00 19.8 10 Noroeste 27 Noroeste 0 947.9 -- 47
2020-10-28 17:00:00 22.2 10 Oeste 21 Noroeste 0 947.6 -- 39
2020-10-28 16:00:00 21.9 5 Norte 22 Oeste 0 947.6 -- 38
2020-10-28 15:00:00 21.8 8 Norte 23 Norte 0 947.5 -- 37
2020-10-28 14:00:00 20.1 14 Norte 27 Norte 0 947.6 -- 40
2020-10-28 13:00:00 19.5 14 Noroeste 32 Noroeste 0.2 948 -- 42
2020-10-28 12:00:00 18.7 6 Nordeste 20 Oeste 0 948.6 -- 45
2020-10-28 11:00:00 17.6 4 Este 22 Noroeste 0 948.5 -- 48
2020-10-28 10:00:00 15.7 4 Nordeste 23 Sudeste 0 948.4 -- 53
2020-10-28 09:00:00 13.2 8 Sur 17 Oeste 0 948.1 -- 62
2020-10-28 08:00:00 10.9 7 Oeste 22 Oeste 0 947.5 -- 70
2020-10-28 07:00:00 10.5 7 Oeste -- -- 0 946.8 -- 71
2020-10-28 06:00:00 10.3 10 Oeste 24 Sudoeste 0 946.5 -- 73
2020-10-28 05:00:00 10.3 7 Sudeste 24 Sudeste 0 946.2 -- 70
2020-10-28 04:00:00 10.6 8 Sudoeste 39 Noroeste 0 946.1 -- 67
2020-10-28 03:00:00 10.8 9 Norte 55 Noroeste 0 945.8 -- 66
2020-10-28 02:00:00 11.3 14 Oeste 47 Noroeste 0 946 -- 62
2020-10-28 01:00:00 12 23 Noroeste 41 Oeste 0 945.8 -- 56
2020-10-28 00:00:00 12.1 11 Oeste 23 Sudoeste 0 946.5 -- 50